Time,TemperatureF,DewpointF,PressureIn,WindDirection,WindDirectionDegrees,WindSpeedMPH,WindSpeedGustMPH,Humidity,HourlyPrecipIn,Conditions,Clouds,dailyrainin,SoftwareType,DateUTC
2013-03-14 00:01:00,23.2,9.9,29.66,South,180,4.0,10.0,56,0.00,,,0.00,meteohub,2013-03-14 04:01:00,
2013-03-14 00:02:00,23.2,9.9,29.66,South,180,4.0,10.0,56,0.00,,,0.00,meteohub,2013-03-14 04:02:00,
2013-03-14 00:07:00,23.0,9.7,29.66,SSW,203,8.0,10.0,56,0.00,,,0.00,meteohub,2013-03-14 04:07:00,
2013-03-14 00:09:00,23.2,9.3,29.66,SE,135,5.0,10.0,55,0.00,,,0.00,meteohub,2013-03-14 04:09:00,
2013-03-14 00:15:00,23.0,9.3,29.66,SSW,203,5.0,10.0,55,0.00,,,0.00,meteohub,2013-03-14 04:15:00,
2013-03-14 00:22:00,22.8,9.9,29.66,South,180,7.0,10.0,57,0.00,,,0.00,meteohub,2013-03-14 04:22:00,
2013-03-14 00:28:00,22.8,9.5,29.66,South,180,3.0,7.0,56,0.00,,,0.00,meteohub,2013-03-14 04:28:00,
2013-03-14 00:34:00,22.6,9.3,29.66,SW,225,3.0,19.0,56,0.00,,,0.00,meteohub,2013-03-14 04:34:00,
2013-03-14 00:40:00,22.5,9.5,29.66,South,180,7.0,8.0,57,0.00,,,0.00,meteohub,2013-03-14 04:40:00,
2013-03-14 00:46:00,22.3,9.0,29.65,East,90,2.0,10.0,56,0.00,,,0.00,meteohub,2013-03-14 04:46:00,
2013-03-14 00:53:00,22.1,9.1,29.65,East,90,3.0,10.0,57,0.00,,,0.00,meteohub,2013-03-14 04:53:00,
2013-03-14 00:59:00,22.1,9.1,29.65,South,180,4.0,8.0,57,0.00,,,0.00,meteohub,2013-03-14 04:59:00,
2013-03-14 01:05:00,21.7,9.3,29.65,NE,45,6.0,11.0,58,0.00,,,0.00,meteohub,2013-03-14 05:05:00,
2013-03-14 01:11:00,21.4,9.0,29.65,East,90,0.0,11.0,58,0.00,,,0.00,meteohub,2013-03-14 05:11:00,
2013-03-14 01:17:00,21.2,8.8,29.65,West,270,3.0,8.0,58,0.00,,,0.00,meteohub,2013-03-14 05:17:00,
2013-03-14 01:22:00,20.8,9.1,29.65,South,180,0.0,6.0,60,0.00,,,0.00,meteohub,2013-03-14 05:22:00,
2013-03-14 01:28:00,20.3,9.0,29.65,SSW,203,4.0,6.0,61,0.00,,,0.00,meteohub,2013-03-14 05:28:00,
2013-03-14 01:35:00,20.5,9.5,29.65,NE,45,2.0,7.0,62,0.00,,,0.00,meteohub,2013-03-14 05:35:00,
2013-03-14 01:41:00,20.5,9.5,29.65,SW,225,1.0,7.0,62,0.00,,,0.00,meteohub,2013-03-14 05:41:00,
2013-03-14 01:47:00,20.3,9.3,29.65,SE,135,0.0,6.0,62,0.00,,,0.00,meteohub,2013-03-14 05:47:00,
2013-03-14 01:52:00,20.1,9.1,29.65,SW,225,2.0,4.0,62,0.00,,,0.00,meteohub,2013-03-14 05:52:00,
2013-03-14 01:58:00,20.1,9.5,29.64,South,180,3.0,3.0,63,0.00,,,0.00,meteohub,2013-03-14 05:58:00,
2013-03-14 02:17:00,19.4,9.1,29.64,NE,45,0.0,3.0,64,0.00,,,0.00,meteohub,2013-03-14 06:17:00,
2013-03-14 02:22:00,19.0,7.9,29.65,North,0,0.0,3.0,61,0.00,,,0.00,meteohub,2013-03-14 06:22:00,
2013-03-14 02:31:00,18.9,7.7,29.65,SE,135,4.0,4.0,61,0.00,,,0.00,meteohub,2013-03-14 06:31:00,
2013-03-14 02:37:00,19.0,8.2,29.65,South,180,6.0,6.0,62,0.00,,,0.00,meteohub,2013-03-14 06:37:00,
2013-03-14 02:43:00,19.2,8.4,29.65,SE,135,3.0,6.0,62,0.00,,,0.00,meteohub,2013-03-14 06:43:00,
2013-03-14 02:49:00,19.4,9.9,29.65,SE,135,1.0,6.0,66,0.00,,,0.00,meteohub,2013-03-14 06:49:00,
2013-03-14 02:56:00,19.4,9.9,29.65,South,180,3.0,4.0,66,0.00,,,0.00,meteohub,2013-03-14 06:56:00,
2013-03-14 03:02:00,18.9,8.1,29.65,South,180,0.0,4.0,62,0.00,,,0.00,meteohub,2013-03-14 07:02:00,
2013-03-14 03:08:00,19.0,8.2,29.66,NE,45,2.0,4.0,62,0.00,,,0.00,meteohub,2013-03-14 07:08:00,
2013-03-14 03:14:00,19.4,9.9,29.65,SE,135,2.0,8.0,66,0.00,,,0.00,meteohub,2013-03-14 07:14:00,
2013-03-14 03:20:00,19.6,10.0,29.67,North,0,0.0,8.0,66,0.00,,,0.00,meteohub,2013-03-14 07:20:00,
2013-03-14 03:27:00,19.6,10.0,29.67,South,180,6.0,8.0,66,0.00,,,0.00,meteohub,2013-03-14 07:27:00,
2013-03-14 03:33:00,19.9,10.4,29.66,SW,225,4.0,8.0,66,0.00,,,0.00,meteohub,2013-03-14 07:33:00,
2013-03-14 03:39:00,20.1,10.2,29.67,SW,225,8.0,10.0,65,0.00,,,0.00,meteohub,2013-03-14 07:39:00,
2013-03-14 03:46:00,19.9,10.0,29.66,South,180,13.0,13.0,65,0.00,,,0.00,meteohub,2013-03-14 07:46:00,
2013-03-14 03:52:00,19.9,10.0,29.66,SW,225,4.0,13.0,65,0.00,,,0.00,meteohub,2013-03-14 07:52:00,
2013-03-14 03:58:00,19.8,9.9,29.66,SW,225,1.0,13.0,65,0.00,,,0.00,meteohub,2013-03-14 07:58:00,
2013-03-14 04:04:00,19.8,9.9,29.66,SW,225,0.0,13.0,65,0.00,,,0.00,meteohub,2013-03-14 08:04:00,
2013-03-14 04:11:00,19.4,9.9,29.66,South,180,4.0,5.0,66,0.00,,,0.00,meteohub,2013-03-14 08:11:00,
2013-03-14 04:17:00,19.4,9.9,29.66,SW,225,2.0,8.0,66,0.00,,,0.00,meteohub,2013-03-14 08:17:00,
2013-03-14 04:23:00,19.0,8.2,29.66,North,0,2.0,8.0,62,0.00,,,0.00,meteohub,2013-03-14 08:23:00,
2013-03-14 04:29:00,18.7,8.2,29.66,NW,315,2.0,6.0,63,0.00,,,0.00,meteohub,2013-03-14 08:29:00,
2013-03-14 04:35:00,18.5,8.8,29.66,North,0,1.0,3.0,65,0.00,,,0.00,meteohub,2013-03-14 08:35:00,
2013-03-14 04:42:00,18.5,9.0,29.66,North,0,2.0,3.0,66,0.00,,,0.00,meteohub,2013-03-14 08:42:00,
2013-03-14 04:48:00,18.5,9.3,29.65,South,180,0.0,3.0,67,0.00,,,0.00,meteohub,2013-03-14 08:48:00,
2013-03-14 04:54:00,18.3,9.1,29.65,NW,315,3.0,4.0,67,0.00,,,0.00,meteohub,2013-03-14 08:54:00,
2013-03-14 05:01:00,18.3,9.1,29.65,NE,45,1.0,4.0,67,0.00,,,0.00,meteohub,2013-03-14 09:01:00,
2013-03-14 05:07:00,18.1,9.0,29.66,NE,45,2.0,4.0,67,0.00,,,0.00,meteohub,2013-03-14 09:07:00,
2013-03-14 05:13:00,18.1,9.3,29.65,North,0,1.0,3.0,68,0.00,,,0.00,meteohub,2013-03-14 09:13:00,
2013-03-14 05:19:00,18.1,9.3,29.66,East,90,3.0,5.0,68,0.00,,,0.00,meteohub,2013-03-14 09:19:00,
2013-03-14 05:26:00,18.3,9.1,29.66,NW,315,3.0,5.0,67,0.00,,,0.00,meteohub,2013-03-14 09:26:00,
2013-03-14 05:32:00,18.1,9.0,29.66,North,0,3.0,7.0,67,0.00,,,0.00,meteohub,2013-03-14 09:32:00,
2013-03-14 05:38:00,18.3,9.1,29.66,NW,315,2.0,7.0,67,0.00,,,0.00,meteohub,2013-03-14 09:38:00,
2013-03-14 05:44:00,18.3,9.1,29.67,SW,225,2.0,5.0,67,0.00,,,0.00,meteohub,2013-03-14 09:44:00,
2013-03-14 05:51:00,18.1,8.8,29.67,West,270,3.0,5.0,66,0.00,,,0.00,meteohub,2013-03-14 09:51:00,
2013-03-14 05:57:00,18.0,8.6,29.67,NW,315,4.0,5.0,66,0.00,,,0.00,meteohub,2013-03-14 09:57:00,
2013-03-14 06:03:00,18.0,8.6,29.67,South,180,3.0,4.0,66,0.00,,,0.00,meteohub,2013-03-14 10:03:00,
2013-03-14 06:09:00,17.8,8.4,29.67,SW,225,4.0,4.0,66,0.00,,,0.00,meteohub,2013-03-14 10:09:00,
2013-03-14 06:15:00,18.0,8.6,29.67,SW,225,3.0,4.0,66,0.00,,,0.00,meteohub,2013-03-14 10:15:00,
2013-03-14 06:21:00,17.6,8.2,29.67,South,180,4.0,4.0,66,0.00,,,0.00,meteohub,2013-03-14 10:21:00,
2013-03-14 06:28:00,17.6,8.2,29.68,NW,315,2.0,4.0,66,0.00,,,0.00,meteohub,2013-03-14 10:28:00,
2013-03-14 06:34:00,17.4,8.4,29.68,SE,135,1.0,4.0,67,0.00,,,0.00,meteohub,2013-03-14 10:34:00,
2013-03-14 06:40:00,17.4,8.6,29.68,NE,45,2.0,4.0,68,0.00,,,0.00,meteohub,2013-03-14 10:40:00,
2013-03-14 06:46:00,17.4,9.0,29.68,NE,45,2.0,4.0,69,0.00,,,0.00,meteohub,2013-03-14 10:46:00,
2013-03-14 06:53:00,17.6,8.6,29.68,NE,45,2.0,8.0,67,0.00,,,0.00,meteohub,2013-03-14 10:53:00,
2013-03-14 06:59:00,17.1,8.2,29.68,South,180,3.0,8.0,68,0.00,,,0.00,meteohub,2013-03-14 10:59:00,
2013-03-14 07:05:00,16.9,8.4,29.69,East,90,2.0,8.0,69,0.00,,,0.00,meteohub,2013-03-14 11:05:00,
2013-03-14 07:11:00,17.1,8.6,29.69,SE,135,2.0,3.0,69,0.00,,,0.00,meteohub,2013-03-14 11:11:00,
2013-03-14 07:17:00,16.9,8.4,29.69,SE,135,2.0,3.0,69,0.00,,,0.00,meteohub,2013-03-14 11:17:00,
2013-03-14 07:22:00,16.7,8.2,29.69,SE,135,0.0,3.0,69,0.00,,,0.00,meteohub,2013-03-14 11:22:00,
2013-03-14 07:28:00,16.5,8.1,29.69,SE,135,2.0,3.0,69,0.00,,,0.00,meteohub,2013-03-14 11:28:00,
2013-03-14 07:34:00,16.3,7.9,29.69,SE,135,0.0,2.0,69,0.00,,,0.00,meteohub,2013-03-14 11:34:00,
2013-03-14 07:41:00,16.2,7.7,29.69,NW,315,1.0,2.0,69,0.00,,,0.00,meteohub,2013-03-14 11:41:00,
2013-03-14 07:46:00,15.8,7.7,29.70,North,0,2.0,3.0,70,0.00,,,0.00,meteohub,2013-03-14 11:46:00,
2013-03-14 07:52:00,15.8,7.7,29.70,NW,315,1.0,3.0,70,0.00,,,0.00,meteohub,2013-03-14 11:52:00,
2013-03-14 07:58:00,15.6,8.2,29.69,East,90,1.0,3.0,72,0.00,,,0.00,meteohub,2013-03-14 11:58:00,
2013-03-14 08:05:00,15.4,8.1,29.69,South,180,1.0,2.0,72,0.00,,,0.00,meteohub,2013-03-14 12:05:00,
2013-03-14 08:11:00,15.4,8.1,29.70,North,0,1.0,1.0,72,0.00,,,0.00,meteohub,2013-03-14 12:11:00,
2013-03-14 08:17:00,15.4,8.1,29.70,SW,225,2.0,2.0,72,0.00,,,0.00,meteohub,2013-03-14 12:17:00,
2013-03-14 08:22:00,15.3,8.2,29.70,SE,135,2.0,2.0,73,0.00,,,0.00,meteohub,2013-03-14 12:22:00,
2013-03-14 08:28:00,15.6,8.6,29.70,North,0,2.0,2.0,73,0.00,,,0.00,meteohub,2013-03-14 12:28:00,
2013-03-14 08:34:00,15.6,8.8,29.70,NE,45,2.0,2.0,74,0.00,,,0.00,meteohub,2013-03-14 12:34:00,
2013-03-14 08:40:00,15.8,8.6,29.71,NW,315,1.0,3.0,73,0.00,,,0.00,meteohub,2013-03-14 12:40:00,
2013-03-14 08:46:00,16.0,9.1,29.71,NW,315,1.0,2.0,74,0.00,,,0.00,meteohub,2013-03-14 12:46:00,
2013-03-14 08:53:00,16.2,9.3,29.70,NE,45,2.0,2.0,74,0.00,,,0.00,meteohub,2013-03-14 12:53:00,
2013-03-14 08:59:00,16.5,10.0,29.70,SE,135,1.0,2.0,75,0.00,,,0.00,meteohub,2013-03-14 12:59:00,
2013-03-14 09:05:00,17.1,10.6,29.71,NE,45,1.0,2.0,75,0.00,,,0.00,meteohub,2013-03-14 13:05:00,
2013-03-14 09:12:00,17.4,10.6,29.71,East,90,2.0,2.0,74,0.00,,,0.00,meteohub,2013-03-14 13:12:00,
2013-03-14 09:18:00,17.8,10.6,29.70,NE,45,2.0,2.0,73,0.00,,,0.00,meteohub,2013-03-14 13:18:00,
2013-03-14 09:24:00,18.5,10.9,29.71,NE,45,0.0,2.0,72,0.00,,,0.00,meteohub,2013-03-14 13:24:00,
2013-03-14 09:30:00,19.0,11.1,29.71,North,0,2.0,2.0,71,0.00,,,0.00,meteohub,2013-03-14 13:30:00,
2013-03-14 09:36:00,19.9,12.9,29.70,NE,45,2.0,2.0,74,0.00,,,0.00,meteohub,2013-03-14 13:36:00,
2013-03-14 09:43:00,20.8,13.6,29.70,East,90,2.0,2.0,73,0.00,,,0.00,meteohub,2013-03-14 13:43:00,
2013-03-14 09:48:00,21.7,13.8,29.71,East,90,2.0,2.0,71,0.00,,,0.00,meteohub,2013-03-14 13:48:00,
2013-03-14 09:53:00,22.8,14.2,29.71,NE,45,2.0,2.0,69,0.00,,,0.00,meteohub,2013-03-14 13:53:00,
2013-03-14 09:59:00,23.7,13.3,29.72,NE,45,2.0,2.0,64,0.00,,,0.00,meteohub,2013-03-14 13:59:00,
2013-03-14 10:05:00,25.0,13.5,29.72,NE,45,0.0,2.0,61,0.00,,,0.00,meteohub,2013-03-14 14:05:00,
2013-03-14 10:11:00,27.0,13.8,29.71,North,0,2.0,4.0,57,0.00,,,0.00,meteohub,2013-03-14 14:11:00,
2013-03-14 10:17:00,28.2,12.0,29.72,North,0,2.0,4.0,50,0.00,,,0.00,meteohub,2013-03-14 14:17:00,
2013-03-14 10:23:00,30.2,14.2,29.71,North,0,2.0,4.0,51,0.00,,,0.00,meteohub,2013-03-14 14:23:00,
2013-03-14 10:29:00,32.2,12.7,29.72,South,180,2.0,2.0,44,0.00,,,0.00,meteohub,2013-03-14 14:29:00,
2013-03-14 10:36:00,34.2,11.8,29.72,NE,45,3.0,4.0,39,0.00,,,0.00,meteohub,2013-03-14 14:36:00,
2013-03-14 10:42:00,37.6,11.1,29.71,SW,225,3.0,11.0,33,0.00,,,0.00,meteohub,2013-03-14 14:42:00,
2013-03-14 10:48:00,41.2,8.1,29.72,South,180,10.0,11.0,25,0.00,,,0.00,meteohub,2013-03-14 14:48:00,
2013-03-14 10:55:00,41.0,4.1,29.72,North,0,3.0,10.0,21,0.00,,,0.00,meteohub,2013-03-14 14:55:00,
2013-03-14 11:01:00,41.7,3.6,29.72,SE,135,6.0,10.0,20,0.00,,,0.00,meteohub,2013-03-14 15:01:00,
2013-03-14 11:06:00,42.1,3.9,29.72,South,180,7.0,8.0,20,0.00,,,0.00,meteohub,2013-03-14 15:06:00,
2013-03-14 11:12:00,41.9,3.7,29.72,North,0,1.0,8.0,20,0.00,,,0.00,meteohub,2013-03-14 15:12:00,
2013-03-14 11:19:00,44.4,5.9,29.72,SW,225,4.0,8.0,20,0.00,,,0.00,meteohub,2013-03-14 15:19:00,
2013-03-14 11:25:00,45.0,3.9,29.72,South,180,6.0,7.0,18,0.00,,,0.00,meteohub,2013-03-14 15:25:00,
2013-03-14 11:31:00,45.7,3.4,29.72,NE,45,2.0,8.0,17,0.00,,,0.00,meteohub,2013-03-14 15:31:00,
2013-03-14 11:37:00,47.5,8.4,29.73,West,270,4.0,8.0,20,0.00,,,0.00,meteohub,2013-03-14 15:37:00,
2013-03-14 11:44:00,49.8,9.1,29.73,South,180,4.0,7.0,19,0.00,,,0.00,meteohub,2013-03-14 15:44:00,
2013-03-14 11:50:00,50.9,7.7,29.73,SW,225,4.0,7.0,17,0.00,,,0.00,meteohub,2013-03-14 15:50:00,
2013-03-14 11:56:00,50.2,5.7,29.72,North,0,10.0,10.0,16,0.00,,,0.00,meteohub,2013-03-14 15:56:00,
2013-03-14 12:02:00,47.7,7.3,29.72,SE,135,3.0,11.0,19,0.00,,,0.00,meteohub,2013-03-14 16:02:00,
2013-03-14 12:07:00,49.1,7.3,29.72,SW,225,4.0,11.0,18,0.00,,,0.00,meteohub,2013-03-14 16:07:00,
2013-03-14 12:13:00,49.5,7.7,29.72,SE,135,2.0,11.0,18,0.00,,,0.00,meteohub,2013-03-14 16:13:00,
2013-03-14 12:19:00,47.8,6.4,29.72,SW,225,2.0,4.0,18,0.00,,,0.00,meteohub,2013-03-14 16:19:00,
2013-03-14 12:26:00,48.9,7.2,29.72,South,180,4.0,7.0,18,0.00,,,0.00,meteohub,2013-03-14 16:26:00,
2013-03-14 12:31:00,48.6,7.0,29.72,NE,45,2.0,7.0,18,0.00,,,0.00,meteohub,2013-03-14 16:31:00,
2013-03-14 12:37:00,46.9,6.8,29.72,South,180,3.0,6.0,19,0.00,,,0.00,meteohub,2013-03-14 16:37:00,
2013-03-14 12:43:00,46.4,6.4,29.72,South,180,4.0,6.0,19,0.00,,,0.00,meteohub,2013-03-14 16:43:00,
2013-03-14 12:49:00,45.9,3.6,29.73,East,90,4.0,5.0,17,0.00,,,0.00,meteohub,2013-03-14 16:49:00,
2013-03-14 12:56:00,46.4,6.4,29.73,NE,45,2.0,11.0,19,0.00,,,0.00,meteohub,2013-03-14 16:56:00,
2013-03-14 13:02:00,49.3,7.5,29.73,South,180,5.0,11.0,18,0.00,,,0.00,meteohub,2013-03-14 17:02:00,
2013-03-14 13:07:00,49.6,6.6,29.73,NW,315,5.0,10.0,17,0.00,,,0.00,meteohub,2013-03-14 17:07:00,
2013-03-14 13:13:00,47.7,6.3,29.73,South,180,24.0,24.0,18,0.00,,,0.00,meteohub,2013-03-14 17:13:00,
2013-03-14 13:19:00,46.2,1.0,29.72,SE,135,11.0,24.0,15,0.00,,,0.00,meteohub,2013-03-14 17:19:00,
2013-03-14 13:25:00,49.5,6.4,29.72,SSW,203,8.0,24.0,17,0.00,,,0.00,meteohub,2013-03-14 17:25:00,
2013-03-14 13:32:00,50.7,6.1,29.72,East,90,2.0,16.0,16,0.00,,,0.00,meteohub,2013-03-14 17:32:00,
2013-03-14 13:38:00,52.9,5.0,29.71,SSW,203,7.0,12.0,14,0.00,,,0.00,meteohub,2013-03-14 17:38:00,
2013-03-14 13:44:00,52.0,4.3,29.71,ESE,113,8.0,12.0,14,0.00,,,0.00,meteohub,2013-03-14 17:44:00,
2013-03-14 13:51:00,51.6,5.4,29.72,SW,225,4.0,12.0,15,0.00,,,0.00,meteohub,2013-03-14 17:51:00,
2013-03-14 13:57:00,49.6,6.6,29.71,SW,225,13.0,15.0,17,0.00,,,0.00,meteohub,2013-03-14 17:57:00,
2013-03-14 14:03:00,52.7,6.3,29.71,South,180,9.0,17.0,15,0.00,,,0.00,meteohub,2013-03-14 18:03:00,
2013-03-14 14:10:00,48.4,5.5,29.71,South,180,13.0,17.0,17,0.00,,,0.00,meteohub,2013-03-14 18:10:00,
2013-03-14 14:16:00,50.7,4.6,29.72,NE,45,2.0,20.0,15,0.00,,,0.00,meteohub,2013-03-14 18:16:00,
2013-03-14 14:22:00,49.8,6.8,29.71,SW,225,16.0,20.0,17,0.00,,,0.00,meteohub,2013-03-14 18:22:00,
2013-03-14 14:28:00,52.2,4.5,29.71,SW,225,5.0,17.0,14,0.00,,,0.00,meteohub,2013-03-14 18:28:00,
2013-03-14 14:35:00,52.7,4.8,29.71,NW,315,3.0,17.0,14,0.00,,,0.00,meteohub,2013-03-14 18:35:00,
2013-03-14 14:41:00,51.1,5.0,29.71,SSW,203,15.0,15.0,15,0.00,,,0.00,meteohub,2013-03-14 18:41:00,
2013-03-14 14:47:00,49.6,6.6,29.71,SW,225,7.0,15.0,17,0.00,,,0.00,meteohub,2013-03-14 18:47:00,
2013-03-14 14:52:00,49.6,6.6,29.72,WSW,248,6.0,15.0,17,0.00,,,0.00,meteohub,2013-03-14 18:52:00,
2013-03-14 14:59:00,50.4,5.9,29.71,NW,315,2.0,15.0,16,0.00,,,0.00,meteohub,2013-03-14 18:59:00,
2013-03-14 15:05:00,48.0,6.4,29.70,SW,225,16.0,16.0,18,0.00,,,0.00,meteohub,2013-03-14 19:05:00,
2013-03-14 15:11:00,46.4,5.2,29.70,SW,225,15.0,17.0,18,0.00,,,0.00,meteohub,2013-03-14 19:11:00,
2013-03-14 15:17:00,46.2,1.0,29.71,SW,225,11.0,17.0,15,0.00,,,0.00,meteohub,2013-03-14 19:17:00,
2013-03-14 15:22:00,46.6,5.4,29.70,NNW,338,3.0,17.0,18,0.00,,,0.00,meteohub,2013-03-14 19:22:00,
2013-03-14 15:28:00,46.8,5.5,29.70,South,180,15.0,15.0,18,0.00,,,0.00,meteohub,2013-03-14 19:28:00,
2013-03-14 15:35:00,45.7,0.7,29.70,SSW,203,2.0,15.0,15,0.00,,,0.00,meteohub,2013-03-14 19:35:00,
2013-03-14 15:41:00,47.3,5.9,29.71,WNW,293,9.0,17.0,18,0.00,,,0.00,meteohub,2013-03-14 19:41:00,
2013-03-14 15:47:00,45.7,0.7,29.70,SW,225,4.0,15.0,15,0.00,,,0.00,meteohub,2013-03-14 19:47:00,
2013-03-14 15:52:00,45.9,0.9,29.70,North,0,5.0,17.0,15,0.00,,,0.00,meteohub,2013-03-14 19:52:00,
2013-03-14 15:58:00,45.7,0.7,29.70,North,0,7.0,17.0,15,0.00,,,0.00,meteohub,2013-03-14 19:58:00,
2013-03-14 16:04:00,44.2,0.9,29.70,NW,315,2.0,17.0,16,0.00,,,0.00,meteohub,2013-03-14 20:04:00,
2013-03-14 16:10:00,44.6,-0.2,29.70,East,90,2.0,11.0,15,0.00,,,0.00,meteohub,2013-03-14 20:10:00,
2013-03-14 16:17:00,46.4,5.2,29.70,SSE,158,11.0,11.0,18,0.00,,,0.00,meteohub,2013-03-14 20:17:00,
2013-03-14 16:23:00,48.9,4.6,29.70,NE,45,5.0,13.0,16,0.00,,,0.00,meteohub,2013-03-14 20:23:00,
2013-03-14 16:29:00,49.5,5.2,29.70,East,90,2.0,13.0,16,0.00,,,0.00,meteohub,2013-03-14 20:29:00,
2013-03-14 16:35:00,49.5,5.2,29.70,SW,225,6.0,10.0,16,0.00,,,0.00,meteohub,2013-03-14 20:35:00,
2013-03-14 16:41:00,48.7,4.5,29.70,SE,135,2.0,10.0,16,0.00,,,0.00,meteohub,2013-03-14 20:41:00,
2013-03-14 16:47:00,48.4,4.3,29.70,South,180,7.0,12.0,16,0.00,,,0.00,meteohub,2013-03-14 20:47:00,
2013-03-14 16:53:00,49.3,6.3,29.70,South,180,4.0,12.0,17,0.00,,,0.00,meteohub,2013-03-14 20:53:00,
2013-03-14 16:59:00,48.6,5.7,29.70,SE,135,9.0,12.0,17,0.00,,,0.00,meteohub,2013-03-14 20:59:00,
2013-03-14 17:05:00,46.9,5.5,29.70,South,180,2.0,16.0,18,0.00,,,0.00,meteohub,2013-03-14 21:05:00,
2013-03-14 17:11:00,48.0,5.2,29.70,South,180,10.0,15.0,17,0.00,,,0.00,meteohub,2013-03-14 21:11:00,
2013-03-14 17:17:00,48.7,4.5,29.70,NW,315,4.0,10.0,16,0.00,,,0.00,meteohub,2013-03-14 21:17:00,
2013-03-14 17:23:00,49.1,4.8,29.69,SSE,158,7.0,10.0,16,0.00,,,0.00,meteohub,2013-03-14 21:23:00,
2013-03-14 17:29:00,45.0,0.1,29.69,North,0,10.0,12.0,15,0.00,,,0.00,meteohub,2013-03-14 21:29:00,
2013-03-14 17:35:00,44.2,0.9,29.69,NW,315,11.0,12.0,16,0.00,,,0.00,meteohub,2013-03-14 21:35:00,
2013-03-14 17:41:00,44.6,-0.2,29.69,NE,45,4.0,11.0,15,0.00,,,0.00,meteohub,2013-03-14 21:41:00,
2013-03-14 17:47:00,44.2,0.9,29.69,NNW,338,2.0,11.0,16,0.00,,,0.00,meteohub,2013-03-14 21:47:00,
2013-03-14 17:53:00,43.3,0.1,29.69,NW,315,6.0,11.0,16,0.00,,,0.00,meteohub,2013-03-14 21:53:00,
2013-03-14 17:59:00,42.6,0.9,29.68,South,180,8.0,13.0,17,0.00,,,0.00,meteohub,2013-03-14 21:59:00,
2013-03-14 18:05:00,42.6,0.9,29.68,NW,315,2.0,13.0,17,0.00,,,0.00,meteohub,2013-03-14 22:05:00,
2013-03-14 18:12:00,42.4,0.7,29.68,North,0,2.0,11.0,17,0.00,,,0.00,meteohub,2013-03-14 22:12:00,
2013-03-14 18:17:00,42.4,0.7,29.68,North,0,6.0,7.0,17,0.00,,,0.00,meteohub,2013-03-14 22:17:00,
2013-03-14 18:23:00,41.7,0.1,29.68,North,0,2.0,7.0,17,0.00,,,0.00,meteohub,2013-03-14 22:23:00,
2013-03-14 18:28:00,41.4,-0.2,29.68,SW,225,5.0,7.0,17,0.00,,,0.00,meteohub,2013-03-14 22:28:00,
2013-03-14 18:33:00,41.0,-0.6,29.69,NE,45,1.0,7.0,17,0.00,,,0.00,meteohub,2013-03-14 22:33:00,
2013-03-14 18:39:00,40.5,0.3,29.68,NW,315,2.0,7.0,18,0.00,,,0.00,meteohub,2013-03-14 22:39:00,
2013-03-14 18:44:00,40.3,0.1,29.69,NW,315,6.0,7.0,18,0.00,,,0.00,meteohub,2013-03-14 22:44:00,
2013-03-14 18:51:00,40.1,0.0,29.69,South,180,8.0,8.0,18,0.00,,,0.00,meteohub,2013-03-14 22:51:00,
2013-03-14 18:57:00,39.7,0.9,29.69,NE,45,1.0,8.0,19,0.00,,,0.00,meteohub,2013-03-14 22:57:00,
2013-03-14 19:03:00,39.6,0.7,29.68,NE,45,2.0,8.0,19,0.00,,,0.00,meteohub,2013-03-14 23:03:00,
2013-03-14 19:09:00,39.4,0.5,29.69,East,90,1.0,8.0,19,0.00,,,0.00,meteohub,2013-03-14 23:09:00,
2013-03-14 19:16:00,39.4,0.5,29.69,North,0,2.0,4.0,19,0.00,,,0.00,meteohub,2013-03-14 23:16:00,
2013-03-14 19:21:00,39.2,0.3,29.69,North,0,2.0,5.0,19,0.00,,,0.00,meteohub,2013-03-14 23:21:00,
2013-03-14 19:27:00,38.8,1.2,29.69,South,180,3.0,5.0,20,0.00,,,0.00,meteohub,2013-03-14 23:27:00,
2013-03-14 19:34:00,37.9,0.5,29.69,SW,225,4.0,5.0,20,0.00,,,0.00,meteohub,2013-03-14 23:34:00,
2013-03-14 19:40:00,37.0,-6.3,29.69,SW,225,2.0,4.0,15,0.00,,,0.00,meteohub,2013-03-14 23:40:00,
2013-03-14 19:46:00,36.5,-6.9,29.69,North,0,1.0,8.0,15,0.00,,,0.00,meteohub,2013-03-14 23:46:00,
2013-03-14 19:53:00,35.8,-7.4,29.69,SW,225,1.0,8.0,15,0.00,,,0.00,meteohub,2013-03-14 23:53:00,
2013-03-14 19:59:00,35.6,-6.2,29.70,NW,315,3.0,7.0,16,0.00,,,0.00,meteohub,2013-03-14 23:59:00,
2013-03-14 20:05:00,35.2,-5.3,29.69,NE,45,0.0,5.0,17,0.00,,,0.00,meteohub,2013-03-15 00:05:00,
2013-03-14 20:11:00,34.7,-5.6,29.69,South,180,5.0,5.0,17,0.00,,,0.00,meteohub,2013-03-15 00:11:00,
2013-03-14 20:17:00,34.7,-5.6,29.69,North,0,2.0,6.0,17,0.00,,,0.00,meteohub,2013-03-15 00:17:00,
2013-03-14 20:22:00,34.2,-6.2,29.68,NE,45,2.0,6.0,17,0.00,,,0.00,meteohub,2013-03-15 00:22:00,
2013-03-14 20:29:00,33.6,-5.4,29.68,North,0,4.0,6.0,18,0.00,,,0.00,meteohub,2013-03-15 00:29:00,
2013-03-14 20:35:00,33.4,-5.6,29.68,NE,45,1.0,3.0,18,0.00,,,0.00,meteohub,2013-03-15 00:35:00,
2013-03-14 20:41:00,32.9,-6.0,29.68,South,180,1.0,4.0,18,0.00,,,0.00,meteohub,2013-03-15 00:41:00,
2013-03-14 20:47:00,32.0,-4.5,29.68,East,90,1.0,3.0,20,0.00,,,0.00,meteohub,2013-03-15 00:47:00,
2013-03-14 20:52:00,31.5,-4.0,29.68,NE,45,1.0,2.0,21,0.00,,,0.00,meteohub,2013-03-15 00:52:00,
2013-03-14 20:58:00,31.3,-4.2,29.69,South,180,1.0,2.0,21,0.00,,,0.00,meteohub,2013-03-15 00:58:00,
2013-03-14 21:04:00,31.5,-4.0,29.68,North,0,1.0,2.0,21,0.00,,,0.00,meteohub,2013-03-15 01:04:00,
2013-03-14 21:11:00,31.8,-3.6,29.69,NE,45,2.0,3.0,21,0.00,,,0.00,meteohub,2013-03-15 01:11:00,
2013-03-14 21:17:00,32.0,-4.5,29.70,SE,135,2.0,3.0,20,0.00,,,0.00,meteohub,2013-03-15 01:17:00,
2013-03-14 21:22:00,32.0,-3.5,29.69,NNE,23,4.0,4.0,21,0.00,,,0.00,meteohub,2013-03-15 01:22:00,
2013-03-14 21:28:00,32.0,-3.5,29.70,South,180,2.0,4.0,21,0.00,,,0.00,meteohub,2013-03-15 01:28:00,
2013-03-14 21:34:00,32.0,-4.5,29.70,ENE,68,2.0,4.0,20,0.00,,,0.00,meteohub,2013-03-15 01:34:00,
2013-03-14 21:41:00,32.0,-2.6,29.70,North,0,6.0,6.0,22,0.00,,,0.00,meteohub,2013-03-15 01:41:00,
2013-03-14 21:47:00,31.8,0.0,29.71,North,0,2.0,7.0,25,0.00,,,0.00,meteohub,2013-03-15 01:47:00,
2013-03-14 21:53:00,31.5,-0.4,29.71,NE,45,2.0,7.0,25,0.00,,,0.00,meteohub,2013-03-15 01:53:00,
2013-03-14 22:00:00,32.0,-1.7,29.71,SW,225,4.0,6.0,23,0.00,,,0.00,meteohub,2013-03-15 02:00:00,
2013-03-14 22:06:00,32.0,-1.7,29.71,SW,225,4.0,8.0,23,0.00,,,0.00,meteohub,2013-03-15 02:06:00,
2013-03-14 22:12:00,32.5,-2.0,29.72,South,180,3.0,8.0,22,0.00,,,0.00,meteohub,2013-03-15 02:12:00,
2013-03-14 22:18:00,32.9,-1.8,29.71,North,0,3.0,4.0,22,0.00,,,0.00,meteohub,2013-03-15 02:18:00,
2013-03-14 22:25:00,32.9,-0.9,29.71,NW,315,1.0,4.0,23,0.00,,,0.00,meteohub,2013-03-15 02:25:00,
2013-03-14 22:31:00,32.7,-0.9,29.72,NE,45,3.0,8.0,23,0.00,,,0.00,meteohub,2013-03-15 02:31:00,
2013-03-14 22:38:00,32.9,-0.9,29.72,SW,225,3.0,4.0,23,0.00,,,0.00,meteohub,2013-03-15 02:38:00,
2013-03-14 22:44:00,32.9,-0.9,29.71,NE,45,2.0,7.0,23,0.00,,,0.00,meteohub,2013-03-15 02:44:00,
2013-03-14 22:59:00,32.7,-0.9,29.70,SE,135,2.0,4.0,23,0.00,,,0.00,meteohub,2013-03-15 02:59:00,
2013-03-14 23:06:00,32.5,-1.1,29.70,South,180,4.0,6.0,23,0.00,,,0.00,meteohub,2013-03-15 03:06:00,
2013-03-14 23:12:00,32.2,-0.6,29.70,NW,315,2.0,6.0,24,0.00,,,0.00,meteohub,2013-03-15 03:12:00,
2013-03-14 23:19:00,31.6,3.0,29.70,NE,45,1.0,6.0,29,0.00,,,0.00,meteohub,2013-03-15 03:19:00,
2013-03-14 23:25:00,31.3,3.4,29.69,North,0,2.0,5.0,30,0.00,,,0.00,meteohub,2013-03-15 03:25:00,
2013-03-14 23:31:00,30.9,4.5,29.70,North,0,3.0,4.0,32,0.00,,,0.00,meteohub,2013-03-15 03:31:00,
2013-03-14 23:37:00,30.7,4.3,29.70,SE,135,2.0,4.0,32,0.00,,,0.00,meteohub,2013-03-15 03:37:00,
2013-03-14 23:44:00,30.6,6.1,29.70,NE,45,1.0,4.0,35,0.00,,,0.00,meteohub,2013-03-15 03:44:00,
2013-03-14 23:50:00,30.6,7.3,29.70,North,0,0.0,4.0,37,0.00,,,0.00,meteohub,2013-03-15 03:50:00,
2013-03-14 23:56:00,30.4,8.4,29.70,North,0,3.0,4.0,39,0.00,,,0.00,meteohub,2013-03-15 03:56:00,